Navios*hios — SXJH — position and weather

sailwx.info

Track history (hours):
 
Tides and Currents Weather Stations Pressure Air Temp Water Temp Dewpoint Dewpoint Depression Visibility Wind Speed Wind Dir Waves Ship Positions

Navios*hios

Last reported at 2015-Jul-25 15:33 UTC. Time now 2015-Aug-03 17:09 UTC.
Position S 34°46' W 057°35'.
Warning: this ship's position is 9 days out of date.

Length 183 m; draft 10.5 m.

Type: Cargo ship. MMSI: 240149000.

Date/timePositionNaut miles runAvg speedWind from/ knotsBaromVisibWave heightAir tempDewpointWater temp
2015-Jul-25 15:33S 34°46' W 057°35'9 9.5
2015-Jul-25 14:33S 34°44' W 057°46'2 2.3
2015-Jul-25 13:33S 34°44' W 057°49'0 0.0
2015-Jul-25 12:33S 34°44' W 057°49'0 0.0
2015-Jul-25 11:30S 34°44' W 057°49'0 0.0
2015-Jul-25 10:33S 34°44' W 057°49'0 0.0
2015-Jul-25 09:30S 34°44' W 057°49'0 0.0
2015-Jul-25 08:33S 34°44' W 057°49'0 0.0
2015-Jul-25 07:33S 34°44' W 057°49'0 0.0
2015-Jul-25 06:33S 34°44' W 057°49'0 0.0
2015-Jul-25 05:33S 34°44' W 057°49'2 1.9
2015-Jul-25 04:34S 34°43' W 057°51'10 9.8
2015-Jul-25 03:34S 34°40' W 058°02'1010.1
2015-Jul-25 02:34S 34°37' W 058°14'8 8.5
2015-Jul-25 01:34S 34°31' W 058°21'  
Track history (hours):
 
Tides and Currents Weather Stations Pressure Air Temp Water Temp Dewpoint Dewpoint Depression Visibility Wind Speed Wind Dir Waves Ship Positions

Navios*hios

Last reported at 2015-Jul-25 15:33 UTC. Time now 2015-Aug-03 17:09 UTC.
Position S 34°46' W 057°35'.
Warning: this ship's position is 9 days out of date.

Length 183 m; draft 10.5 m.

Type: Cargo ship. MMSI: 240149000.

Date/timePositionNaut miles runAvg speedWind from/ knotsBaromVisibWave heightAir tempDewpointWater temp
2015-Jul-25 15:33S 34°46' W 057°35'9 9.5
2015-Jul-25 14:33S 34°44' W 057°46'2 2.3
2015-Jul-25 13:33S 34°44' W 057°49'0 0.0
2015-Jul-25 12:33S 34°44' W 057°49'0 0.0
2015-Jul-25 11:30S 34°44' W 057°49'0 0.0
2015-Jul-25 10:33S 34°44' W 057°49'0 0.0
2015-Jul-25 09:30S 34°44' W 057°49'0 0.0
2015-Jul-25 08:33S 34°44' W 057°49'0 0.0
2015-Jul-25 07:33S 34°44' W 057°49'0 0.0
2015-Jul-25 06:33S 34°44' W 057°49'0 0.0
2015-Jul-25 05:33S 34°44' W 057°49'2 1.9
2015-Jul-25 04:34S 34°43' W 057°51'10 9.8
2015-Jul-25 03:34S 34°40' W 058°02'1010.1
2015-Jul-25 02:34S 34°37' W 058°14'8 8.5
2015-Jul-25 01:34S 34°31' W 058°21'  

Dump ship's entire track history